Time;durP1;ratioP1;P1;durP2;ratioP2;P2;SDS_P1;SDS_P2;PMS_P1;PMS_P2;Temp;Humidity;BMP_temperature;BMP_pressure;BME280_temperature;BME280_humidity;BME280_pressure;Samples;Min_cycle;Max_cycle;Signal;HPM_P1;HPM_P2
2022/12/05 00:02:20;;;;;;;102.13;37.38;;;;;;;;;;4954541;29;20138;-82
2022/12/05 00:04:47;;;;;;;109.88;40.17;;;;;;;;;;4955363;28;20055;-80
2022/12/05 00:07:16;;;;;;;107.43;38.08;;;;;;;;;;4952745;28;20065;-80
2022/12/05 00:09:42;;;;;;;98.78;36.80;;;;;;;;;;4955026;28;20118;-80
2022/12/05 00:12:08;;;;;;;105.97;39.03;;;;;;;;;;4954590;28;20499;-81
2022/12/05 00:14:35;;;;;;;106.05;39.90;;;;;;;;;;4953856;28;20055;-81
2022/12/05 00:17:04;;;;;;;111.97;39.13;;;;;;;;;;4955325;28;20140;-80
2022/12/05 00:19:33;;;;;;;105.93;38.38;;;;;;;;;;4956511;28;20051;-81
2022/12/05 00:21:59;;;;;;;116.43;39.00;;;;;;;;;;4956178;28;20055;-81
2022/12/05 00:24:26;;;;;;;104.40;38.20;;;;;;;;;;4956915;29;20526;-83
2022/12/05 00:26:52;;;;;;;102.45;39.22;;;;;;;;;;4957213;29;20047;-81
2022/12/05 00:29:18;;;;;;;107.82;39.45;;;;;;;;;;4956253;28;20104;-81
2022/12/05 00:31:48;;;;;;;108.07;37.50;;;;;;;;;;4957125;28;20051;-82
2022/12/05 00:34:14;;;;;;;103.30;38.60;;;;;;;;;;4957397;29;20043;-82
2022/12/05 00:36:40;;;;;;;104.47;36.53;;;;;;;;;;4955699;29;20051;-82
2022/12/05 00:39:09;;;;;;;98.97;37.10;;;;;;;;;;4958307;29;20043;-81
2022/12/05 00:41:39;;;;;;;99.43;36.97;;;;;;;;;;4941838;29;20480;-81
2022/12/05 00:44:05;;;;;;;112.18;38.67;;;;;;;;;;4950396;29;20055;-81
2022/12/05 00:46:33;;;;;;;99.75;38.05;;;;;;;;;;4955533;29;20059;-79
2022/12/05 00:49:00;;;;;;;109.70;39.33;;;;;;;;;;4954128;28;20047;-80
2022/12/05 00:51:29;;;;;;;107.18;37.40;;;;;;;;;;4968280;28;20520;-82
2022/12/05 00:54:03;;;;;;;96.70;36.55;;;;;;;;;;4952339;28;20043;-81
2022/12/05 00:56:30;;;;;;;104.40;37.30;;;;;;;;;;4954550;28;20043;-81
2022/12/05 00:58:57;;;;;;;100.47;37.53;;;;;;;;;;4953152;28;20057;-81
2022/12/05 01:01:26;;;;;;;101.57;35.90;;;;;;;;;;4955683;29;20047;-79
2022/12/05 01:03:53;;;;;;;96.68;37.08;;;;;;;;;;4954676;28;20057;-80
2022/12/05 01:06:20;;;;;;;101.72;37.22;;;;;;;;;;4958984;28;20066;-81
2022/12/05 01:08:47;;;;;;;96.88;37.85;;;;;;;;;;4955434;29;20066;-81
2022/12/05 01:11:14;;;;;;;106.82;38.10;;;;;;;;;;4955056;28;20059;-82
2022/12/05 01:13:41;;;;;;;108.68;38.17;;;;;;;;;;4952065;29;20059;-80
2022/12/05 01:16:24;;;;;;;103.88;36.75;;;;;;;;;;4953683;28;20077;-82
2022/12/05 01:18:51;;;;;;;104.75;37.60;;;;;;;;;;4955107;28;20526;-80
2022/12/05 01:21:19;;;;;;;99.82;37.95;;;;;;;;;;4954408;28;20058;-81
2022/12/05 01:23:46;;;;;;;105.57;37.17;;;;;;;;;;4954522;28;20047;-81
2022/12/05 01:26:13;;;;;;;106.78;38.92;;;;;;;;;;4954955;28;20055;-81
2022/12/05 01:28:40;;;;;;;106.78;39.22;;;;;;;;;;4953013;29;20484;-81
2022/12/05 01:31:27;;;;;;;98.30;35.08;;;;;;;;;;4969755;28;20055;-82
2022/12/05 01:33:55;;;;;;;99.30;36.35;;;;;;;;;;4953836;29;20077;-81
2022/12/05 01:36:22;;;;;;;98.45;36.00;;;;;;;;;;4953340;29;20055;-82
2022/12/05 01:38:49;;;;;;;86.47;33.75;;;;;;;;;;4955966;28;20043;-82
2022/12/05 01:41:17;;;;;;;94.93;37.05;;;;;;;;;;4955700;28;20047;-81
2022/12/05 01:43:56;;;;;;;82.60;32.20;;;;;;;;;;4953467;29;20054;-82
2022/12/05 01:46:22;;;;;;;85.88;31.55;;;;;;;;;;4958513;29;20047;-81
2022/12/05 01:48:50;;;;;;;77.10;28.60;;;;;;;;;;4962053;29;20047;-81
2022/12/05 01:51:17;;;;;;;61.67;26.65;;;;;;;;;;4961879;29;20043;-80
2022/12/05 01:53:43;;;;;;;55.17;24.65;;;;;;;;;;4958456;29;20519;-81
2022/12/05 01:56:10;;;;;;;55.42;24.55;;;;;;;;;;4955691;28;20047;-82
2022/12/05 01:58:39;;;;;;;50.83;22.27;;;;;;;;;;4954810;29;20111;-82
2022/12/05 02:01:05;;;;;;;54.33;23.65;;;;;;;;;;4957133;28;20134;-82
2022/12/05 02:03:32;;;;;;;54.15;23.13;;;;;;;;;;4955813;29;20043;-82
2022/12/05 02:05:58;;;;;;;52.70;23.23;;;;;;;;;;4961108;28;20055;-82
2022/12/05 02:08:26;;;;;;;51.13;21.90;;;;;;;;;;4959000;28;20130;-83
2022/12/05 02:10:55;;;;;;;45.67;21.73;;;;;;;;;;4958375;28;20174;-82
2022/12/05 02:13:21;;;;;;;44.97;20.77;;;;;;;;;;4958077;28;20059;-82
2022/12/05 02:15:59;;;;;;;43.90;20.10;;;;;;;;;;4959473;29;20070;-82
2022/12/05 02:18:25;;;;;;;44.97;20.58;;;;;;;;;;4961761;29;20051;-81
2022/12/05 02:21:11;;;;;;;41.97;19.80;;;;;;;;;;4967149;29;20062;-81
2022/12/05 02:23:44;;;;;;;37.22;18.40;;;;;;;;;;4958881;29;20062;-81
2022/12/05 02:26:10;;;;;;;43.00;18.42;;;;;;;;;;4960163;29;20397;-82
2022/12/05 02:28:43;;;;;;;41.97;19.08;;;;;;;;;;4956190;28;20155;-81
2022/12/05 02:31:21;;;;;;;35.20;18.25;;;;;;;;;;4958601;28;20431;-80
2022/12/05 02:33:49;;;;;;;34.80;17.17;;;;;;;;;;4956195;28;20062;-81
2022/12/05 02:36:16;;;;;;;37.15;17.92;;;;;;;;;;4954179;28;20051;-81
2022/12/05 02:38:51;;;;;;;35.67;18.15;;;;;;;;;;4956090;29;20060;-81
2022/12/05 02:41:18;;;;;;;;;;;;;;;;;;4956014;29;20051;-81
2022/12/05 02:43:53;;;;;;;38.20;16.63;;;;;;;;;;4940948;28;19927;-82
2022/12/05 02:46:21;;;;;;;36.45;17.27;;;;;;;;;;4937703;29;20134;-82
2022/12/05 02:48:49;;;;;;;39.35;18.67;;;;;;;;;;4938281;29;20167;-81
2022/12/05 02:51:19;;;;;;;39.42;18.52;;;;;;;;;;4939014;29;20070;-83
2022/12/05 02:53:46;;;;;;;41.72;19.67;;;;;;;;;;4938892;29;20539;-82
2022/12/05 02:56:13;;;;;;;42.90;18.83;;;;;;;;;;4939488;29;20052;-83
2022/12/05 02:58:44;;;;;;;38.55;18.80;;;;;;;;;;4938595;29;20059;-83
2022/12/05 03:01:11;;;;;;;39.28;18.02;;;;;;;;;;4939563;29;20220;-82
2022/12/05 03:03:37;;;;;;;38.45;18.10;;;;;;;;;;4939666;29;20492;-83
2022/12/05 03:06:06;;;;;;;40.05;19.00;;;;;;;;;;4940119;29;20059;-83
2022/12/05 03:08:43;;;;;;;41.53;18.08;;;;;;;;;;4940985;29;20323;-83
2022/12/05 03:11:10;;;;;;;37.80;18.17;;;;;;;;;;4944370;29;20052;-83
2022/12/05 03:13:54;;;;;;;38.30;17.80;;;;;;;;;;4946739;29;20055;-82
2022/12/05 03:16:24;;;;;;;34.72;17.98;;;;;;;;;;4970189;28;20091;-82
2022/12/05 03:19:05;;;;;;;37.42;18.50;;;;;;;;;;4968435;28;20051;-82
2022/12/05 03:21:45;;;;;;;40.05;17.88;;;;;;;;;;4972047;28;20087;-83
2022/12/05 03:24:13;;;;;;;37.15;18.00;;;;;;;;;;4974840;28;20039;-82
2022/12/05 03:26:47;;;;;;;41.10;18.98;;;;;;;;;;4974801;28;20423;-82
2022/12/05 03:29:19;;;;;;;42.92;18.92;;;;;;;;;;4974430;28;20058;-82
2022/12/05 03:31:46;;;;;;;41.47;18.38;;;;;;;;;;4977865;28;20110;-81
2022/12/05 03:34:15;;;;;;;40.75;19.02;;;;;;;;;;4977487;28;20239;-83
2022/12/05 03:36:46;;;;;;;45.85;19.95;;;;;;;;;;4965658;28;20047;-82
2022/12/05 03:39:23;;;;;;;47.03;20.58;;;;;;;;;;4961267;28;20424;-82
2022/12/05 03:41:59;;;;;;;43.38;19.27;;;;;;;;;;4971164;28;20057;-80
2022/12/05 03:44:32;;;;;;;48.47;21.10;;;;;;;;;;4954733;29;20058;-80
2022/12/05 03:47:02;;;;;;;52.28;21.73;;;;;;;;;;4956638;28;20058;-81
2022/12/05 03:49:39;;;;;;;49.28;20.60;;;;;;;;;;4972381;28;20074;-81
2022/12/05 03:52:14;;;;;;;50.10;22.50;;;;;;;;;;4957207;28;20051;-82
2022/12/05 03:54:51;;;;;;;52.83;21.13;;;;;;;;;;4957079;28;20244;-80
2022/12/05 03:57:23;;;;;;;50.78;21.60;;;;;;;;;;4972022;28;20047;-81
2022/12/05 03:59:53;;;;;;;47.70;20.90;;;;;;;;;;4970404;28;20578;-80
2022/12/05 04:02:44;;;;;;;46.88;21.67;;;;;;;;;;4955724;28;20057;-80
2022/12/05 04:05:22;;;;;;;66.43;27.73;;;;;;;;;;4956869;28;20087;-81
2022/12/05 04:07:52;;;;;;;78.50;30.65;;;;;;;;;;4953612;29;20099;-80
2022/12/05 04:10:21;;;;;;;90.43;32.97;;;;;;;;;;4957143;28;20500;-80
2022/12/05 04:12:48;;;;;;;97.68;34.80;;;;;;;;;;4968724;28;20061;-79
2022/12/05 04:15:22;;;;;;;90.72;34.45;;;;;;;;;;4954750;29;20043;-80
2022/12/05 04:17:51;;;;;;;98.32;34.95;;;;;;;;;;4954725;28;20142;-83
2022/12/05 04:23:08;;;;;;;101.10;35.50;;;;;;;;;;4953165;28;20146;-81
2022/12/05 04:26:04;;;;;;;105.82;36.40;;;;;;;;;;4953855;28;20058;-80
2022/12/05 04:28:35;;;;;;;70.88;26.10;;;;;;;;;;4951970;28;20082;-81
2022/12/05 04:31:04;;;;;;;105.28;35.88;;;;;;;;;;4958321;28;20059;-82
2022/12/05 04:33:34;;;;;;;104.90;36.20;;;;;;;;;;4957470;28;20055;-82
2022/12/05 04:36:06;;;;;;;100.82;36.65;;;;;;;;;;4959359;28;20460;-81
2022/12/05 04:38:49;;;;;;;106.47;36.80;;;;;;;;;;4952358;29;20051;-82
2022/12/05 04:41:24;;;;;;;112.05;37.75;;;;;;;;;;4954377;28;20527;-81
2022/12/05 04:43:52;;;;;;;105.68;36.10;;;;;;;;;;4939011;28;20501;-82
2022/12/05 04:46:20;;;;;;;97.15;35.72;;;;;;;;;;4951049;29;20052;-82
2022/12/05 04:49:08;;;;;;;104.47;36.53;;;;;;;;;;4936508;29;20147;-80
2022/12/05 04:51:35;;;;;;;104.15;35.03;;;;;;;;;;4934508;29;20055;-80
2022/12/05 04:54:07;;;;;;;109.38;34.22;;;;;;;;;;4934668;29;20058;-81
2022/12/05 04:56:35;;;;;;;106.20;35.20;;;;;;;;;;4936410;29;20151;-80
2022/12/05 04:59:01;;;;;;;107.00;35.58;;;;;;;;;;4935011;29;20056;-81
2022/12/05 05:01:40;;;;;;;104.32;36.45;;;;;;;;;;4934703;29;20066;-79
2022/12/05 05:04:10;;;;;;;107.50;35.38;;;;;;;;;;4950993;29;20047;-82
2022/12/05 05:06:37;;;;;;;110.22;35.95;;;;;;;;;;4954948;28;20077;-80
2022/12/05 05:09:03;;;;;;;95.30;35.17;;;;;;;;;;4955384;28;20519;-80
2022/12/05 05:11:34;;;;;;;97.03;33.53;;;;;;;;;;4955732;28;20074;-81
2022/12/05 05:14:00;;;;;;;88.93;33.17;;;;;;;;;;4953033;29;20062;-82
2022/12/05 05:16:28;;;;;;;85.75;32.58;;;;;;;;;;4969847;28;20048;-81
2022/12/05 05:18:55;;;;;;;80.53;31.10;;;;;;;;;;4953974;28;20075;-81
2022/12/05 05:21:25;;;;;;;86.78;31.45;;;;;;;;;;4953714;28;20047;-80
2022/12/05 05:23:52;;;;;;;90.30;32.17;;;;;;;;;;4953940;28;20047;-81
2022/12/05 05:26:18;;;;;;;92.13;31.80;;;;;;;;;;4955681;28;20081;-81
2022/12/05 05:28:45;;;;;;;86.25;31.80;;;;;;;;;;4952897;29;20534;-80
2022/12/05 05:31:11;;;;;;;80.13;30.80;;;;;;;;;;4955208;29;20051;-80
2022/12/05 05:33:39;;;;;;;87.80;31.83;;;;;;;;;;4954228;28;20084;-81
2022/12/05 05:36:07;;;;;;;82.35;31.80;;;;;;;;;;4955070;29;20047;-81
2022/12/05 05:38:34;;;;;;;90.88;31.75;;;;;;;;;;4955100;28;20049;-81
2022/12/05 05:41:00;;;;;;;83.20;31.73;;;;;;;;;;4954866;28;20054;-83
2022/12/05 05:43:27;;;;;;;94.38;33.50;;;;;;;;;;4943054;28;20428;-81
2022/12/05 05:45:53;;;;;;;81.05;30.50;;;;;;;;;;4935397;29;20065;-83
2022/12/05 05:48:19;;;;;;;73.82;29.30;;;;;;;;;;4934016;29;20394;-81
2022/12/05 05:50:46;;;;;;;74.60;30.10;;;;;;;;;;4933960;29;20055;-78
2022/12/05 05:53:12;;;;;;;82.63;30.10;;;;;;;;;;4932201;29;20083;-82
2022/12/05 05:55:39;;;;;;;72.50;29.13;;;;;;;;;;4933549;29;20489;-80
2022/12/05 05:58:06;;;;;;;73.20;28.52;;;;;;;;;;4933562;29;20055;-81
2022/12/05 06:00:32;;;;;;;71.47;28.25;;;;;;;;;;4940810;29;20475;-80
2022/12/05 06:02:59;;;;;;;73.55;28.27;;;;;;;;;;4951907;29;20043;-83
2022/12/05 06:05:26;;;;;;;75.00;28.88;;;;;;;;;;4952616;28;20051;-82
2022/12/05 06:07:52;;;;;;;73.43;28.75;;;;;;;;;;4951689;28;20102;-83
2022/12/05 06:10:19;;;;;;;76.13;27.75;;;;;;;;;;4953169;28;20058;-80
2022/12/05 06:12:45;;;;;;;70.82;28.92;;;;;;;;;;4950493;28;20055;-80
2022/12/05 06:15:12;;;;;;;69.05;27.88;;;;;;;;;;4958334;28;20057;-80
2022/12/05 06:17:38;;;;;;;66.90;27.02;;;;;;;;;;4952781;29;20047;-81
2022/12/05 06:20:05;;;;;;;71.95;28.00;;;;;;;;;;4952809;28;20054;-79
2022/12/05 06:22:32;;;;;;;64.70;26.77;;;;;;;;;;4952027;29;20416;-82
2022/12/05 06:24:58;;;;;;;64.22;26.85;;;;;;;;;;4953891;28;20043;-80
2022/12/05 06:27:24;;;;;;;69.68;27.35;;;;;;;;;;4952445;28;20054;-80
2022/12/05 06:29:51;;;;;;;68.07;27.85;;;;;;;;;;4951679;28;20055;-81
2022/12/05 06:32:18;;;;;;;63.22;27.77;;;;;;;;;;4952872;28;20416;-79
2022/12/05 06:34:44;;;;;;;70.00;28.75;;;;;;;;;;4951285;29;20424;-80
2022/12/05 06:37:10;;;;;;;65.50;26.60;;;;;;;;;;4950556;29;20071;-83
2022/12/05 06:39:37;;;;;;;69.57;28.05;;;;;;;;;;4957548;28;20047;-79
2022/12/05 06:42:04;;;;;;;67.90;27.27;;;;;;;;;;4945160;28;20058;-79
2022/12/05 06:44:30;;;;;;;68.53;27.83;;;;;;;;;;4970041;28;20071;-81
2022/12/05 06:46:56;;;;;;;59.85;27.08;;;;;;;;;;4974575;28;20124;-81
2022/12/05 06:49:25;;;;;;;60.72;26.42;;;;;;;;;;4972408;28;20094;-82
2022/12/05 06:51:58;;;;;;;64.38;27.48;;;;;;;;;;4986836;28;20118;-83
2022/12/05 06:54:25;;;;;;;66.90;26.98;;;;;;;;;;4964590;28;20365;-80
2022/12/05 06:56:51;;;;;;;62.75;27.08;;;;;;;;;;4946478;28;20051;-78
2022/12/05 06:59:18;;;;;;;64.72;26.52;;;;;;;;;;4945385;28;20531;-78
2022/12/05 07:01:45;;;;;;;66.28;27.15;;;;;;;;;;4946982;28;20061;-82
2022/12/05 07:04:25;;;;;;;65.03;26.23;;;;;;;;;;4962741;28;20146;-81
2022/12/05 07:06:52;;;;;;;65.13;26.55;;;;;;;;;;4943768;28;20435;-80
2022/12/05 07:09:20;;;;;;;62.63;27.10;;;;;;;;;;4947994;28;20061;-78
2022/12/05 07:11:47;;;;;;;62.13;26.65;;;;;;;;;;4951120;28;20496;-78
2022/12/05 07:14:14;;;;;;;65.60;26.85;;;;;;;;;;4951322;28;20070;-79
2022/12/05 07:17:00;;;;;;;67.65;27.80;;;;;;;;;;4955575;29;20172;-80
2022/12/05 07:19:26;;;;;;;64.18;28.33;;;;;;;;;;4954987;29;20054;-81
2022/12/05 07:21:53;;;;;;;65.10;26.52;;;;;;;;;;4956935;28;20047;-80
2022/12/05 07:24:19;;;;;;;60.03;26.77;;;;;;;;;;4954625;28;20058;-80
2022/12/05 07:26:46;;;;;;;64.38;27.70;;;;;;;;;;4953183;29;20055;-79
2022/12/05 07:29:12;;;;;;;60.92;25.88;;;;;;;;;;4956257;28;20065;-83
2022/12/05 07:31:38;;;;;;;60.10;25.83;;;;;;;;;;4957361;28;20055;-81
2022/12/05 07:34:05;;;;;;;63.53;26.83;;;;;;;;;;4954466;28;20051;-81
2022/12/05 07:36:31;;;;;;;65.68;27.02;;;;;;;;;;4955082;28;20066;-81
2022/12/05 07:38:58;;;;;;;71.35;27.45;;;;;;;;;;4954927;28;20122;-81
2022/12/05 07:41:26;;;;;;;66.43;26.13;;;;;;;;;;4952786;28;20043;-81
2022/12/05 07:43:53;;;;;;;71.75;28.38;;;;;;;;;;4949010;29;20070;-82
2022/12/05 07:46:20;;;;;;;71.55;27.73;;;;;;;;;;4955972;29;20051;-80
2022/12/05 07:48:46;;;;;;;64.70;25.73;;;;;;;;;;4955109;28;20059;-80
2022/12/05 07:51:13;;;;;;;68.65;26.20;;;;;;;;;;4955202;28;20051;-81
2022/12/05 07:53:41;;;;;;;67.90;28.25;;;;;;;;;;4953895;29;20062;-81
2022/12/05 07:56:08;;;;;;;63.60;27.35;;;;;;;;;;4955419;29;20047;-81
2022/12/05 07:58:34;;;;;;;70.85;27.90;;;;;;;;;;4958209;29;20055;-82
2022/12/05 08:01:05;;;;;;;62.53;25.88;;;;;;;;;;4963002;28;20103;-82
2022/12/05 08:03:31;;;;;;;62.92;26.20;;;;;;;;;;4964882;28;20051;-82
2022/12/05 08:06:09;;;;;;;66.03;27.40;;;;;;;;;;4964426;28;20055;-81
2022/12/05 08:08:36;;;;;;;66.45;26.73;;;;;;;;;;4966494;29;20357;-81
2022/12/05 08:11:04;;;;;;;64.63;25.55;;;;;;;;;;4965137;28;20058;-81
2022/12/05 08:13:30;;;;;;;59.55;26.02;;;;;;;;;;4954005;28;20051;-81
2022/12/05 08:16:04;;;;;;;64.72;25.70;;;;;;;;;;4956205;28;20051;-81
2022/12/05 08:18:30;;;;;;;64.57;25.90;;;;;;;;;;4955757;28;20062;-81
2022/12/05 08:21:04;;;;;;;61.88;26.08;;;;;;;;;;4954034;29;20051;-81
2022/12/05 08:23:31;;;;;;;61.72;25.88;;;;;;;;;;4953068;28;20047;-82
2022/12/05 08:26:08;;;;;;;64.43;27.25;;;;;;;;;;4955052;28;20507;-81
2022/12/05 08:28:35;;;;;;;64.28;26.38;;;;;;;;;;4951802;29;20058;-81
2022/12/05 08:31:03;;;;;;;82.38;33.40;;;;;;;;;;4954525;28;20054;-81
2022/12/05 08:33:30;;;;;;;104.15;40.13;;;;;;;;;;4954303;28;20082;-81
2022/12/05 08:35:56;;;;;;;109.63;43.80;;;;;;;;;;4955359;28;20047;-82
2022/12/05 08:38:22;;;;;;;172.93;60.20;;;;;;;;;;4954369;28;20508;-81
2022/12/05 08:40:49;;;;;;;100.07;40.05;;;;;;;;;;4955472;28;20047;-81
2022/12/05 08:43:15;;;;;;;88.28;35.95;;;;;;;;;;4958079;28;20055;-82
2022/12/05 08:45:47;;;;;;;71.70;29.65;;;;;;;;;;4936109;29;20063;-82
2022/12/05 08:48:14;;;;;;;73.32;29.67;;;;;;;;;;4936458;29;20528;-82
2022/12/05 08:50:40;;;;;;;64.13;28.02;;;;;;;;;;4956153;29;20408;-82
2022/12/05 08:53:07;;;;;;;66.13;27.45;;;;;;;;;;4959800;28;20047;-81
2022/12/05 08:55:36;;;;;;;98.13;36.15;;;;;;;;;;4960417;28;20156;-81
2022/12/05 08:58:03;;;;;;;107.97;38.78;;;;;;;;;;4960270;28;20058;-82
2022/12/05 09:00:29;;;;;;;129.38;44.25;;;;;;;;;;4960395;28;20476;-82
2022/12/05 09:02:56;;;;;;;146.18;52.50;;;;;;;;;;4962008;28;20043;-81
2022/12/05 09:05:23;;;;;;;119.47;43.92;;;;;;;;;;4962629;28;20090;-81
2022/12/05 09:07:53;;;;;;;95.57;37.40;;;;;;;;;;4961662;29;20058;-81
2022/12/05 09:10:20;;;;;;;83.57;35.22;;;;;;;;;;4956989;28;20142;-81
2022/12/05 09:12:47;;;;;;;79.70;31.75;;;;;;;;;;4956641;28;20059;-80
2022/12/05 09:15:13;;;;;;;83.13;34.50;;;;;;;;;;4954305;28;20066;-81
2022/12/05 09:17:39;;;;;;;94.47;39.10;;;;;;;;;;4954351;29;20047;-81
2022/12/05 09:20:06;;;;;;;86.72;33.47;;;;;;;;;;4954705;28;20043;-81
2022/12/05 09:22:33;;;;;;;71.38;29.38;;;;;;;;;;4952830;28;20051;-81
2022/12/05 09:25:02;;;;;;;71.03;28.45;;;;;;;;;;4955311;28;20152;-81
2022/12/05 09:27:28;;;;;;;63.92;27.00;;;;;;;;;;4955258;28;20416;-81
2022/12/05 09:29:55;;;;;;;63.42;27.52;;;;;;;;;;4954403;28;20114;-82
2022/12/05 09:32:21;;;;;;;61.85;26.98;;;;;;;;;;4954461;28;20048;-80
2022/12/05 09:34:50;;;;;;;60.47;26.95;;;;;;;;;;4954288;28;20047;-80
2022/12/05 09:37:17;;;;;;;62.63;27.52;;;;;;;;;;4953779;28;20062;-81
2022/12/05 09:40:03;;;;;;;64.50;25.90;;;;;;;;;;4955145;28;20055;-81
2022/12/05 09:42:54;;;;;;;57.75;24.85;;;;;;;;;;4949624;28;20051;-81
2022/12/05 09:45:23;;;;;;;64.05;28.40;;;;;;;;;;4934405;29;20417;-81
2022/12/05 09:47:56;;;;;;;65.70;29.90;;;;;;;;;;4934853;29;20512;-80
2022/12/05 09:50:27;;;;;;;79.03;34.28;;;;;;;;;;4934920;29;20052;-81
2022/12/05 09:52:59;;;;;;;71.43;31.00;;;;;;;;;;4933267;29;20511;-81
2022/12/05 09:55:28;;;;;;;52.85;24.20;;;;;;;;;;4934758;29;20055;-80
2022/12/05 09:57:56;;;;;;;54.05;22.70;;;;;;;;;;4942512;29;20055;-81
2022/12/05 10:00:24;;;;;;;46.58;21.65;;;;;;;;;;4954865;28;20134;-80
2022/12/05 10:03:00;;;;;;;47.30;20.05;;;;;;;;;;4954559;28;20047;-80
2022/12/05 10:05:35;;;;;;;39.92;19.08;;;;;;;;;;4954326;28;20061;-80
2022/12/05 10:08:02;;;;;;;;;;;;;;;;;;4954404;28;20134;-81
2022/12/05 10:10:32;;;;;;;41.63;17.80;;;;;;;;;;4956132;29;19926;-82
2022/12/05 10:13:06;;;;;;;42.30;18.23;;;;;;;;;;4952137;28;20059;-80
2022/12/05 10:15:43;;;;;;;39.13;18.02;;;;;;;;;;4954236;28;20315;-80
2022/12/05 10:18:23;;;;;;;38.20;18.08;;;;;;;;;;4954362;28;20047;-80
2022/12/05 10:20:52;;;;;;;35.53;16.13;;;;;;;;;;4954277;28;20047;-81
2022/12/05 10:23:23;;;;;;;32.08;14.85;;;;;;;;;;4953575;28;20051;-81
2022/12/05 10:26:12;;;;;;;31.45;14.27;;;;;;;;;;4953632;28;20469;-80
2022/12/05 10:28:51;;;;;;;30.15;15.10;;;;;;;;;;4951992;28;20167;-79
2022/12/05 10:31:20;;;;;;;31.05;14.70;;;;;;;;;;4952781;28;20051;-80
2022/12/05 10:33:49;;;;;;;31.80;15.35;;;;;;;;;;4953239;28;20047;-80
2022/12/05 10:36:15;;;;;;;35.80;16.45;;;;;;;;;;4953255;28;20074;-80
2022/12/05 10:38:43;;;;;;;34.00;16.65;;;;;;;;;;4953818;29;20078;-79
2022/12/05 10:41:11;;;;;;;31.40;15.20;;;;;;;;;;4953287;28;20047;-80
2022/12/05 10:43:39;;;;;;;32.70;15.25;;;;;;;;;;4938466;28;20552;-81
2022/12/05 10:46:05;;;;;;;29.17;14.50;;;;;;;;;;4935307;29;20052;-80
2022/12/05 10:48:36;;;;;;;30.55;15.00;;;;;;;;;;4934387;29;20052;-79
2022/12/05 10:51:04;;;;;;;24.20;11.98;;;;;;;;;;4936184;29;20052;-78
2022/12/05 10:53:39;;;;;;;24.02;11.73;;;;;;;;;;4936144;29;20052;-79
2022/12/05 10:56:24;;;;;;;24.13;11.55;;;;;;;;;;4934982;29;20483;-80
2022/12/05 10:58:56;;;;;;;18.55;8.05;;;;;;;;;;4934546;29;20052;-80
2022/12/05 11:01:24;;;;;;;14.38;7.68;;;;;;;;;;4938386;29;20509;-81
2022/12/05 11:03:56;;;;;;;15.82;7.50;;;;;;;;;;4936712;29;20047;-79
2022/12/05 11:06:26;;;;;;;15.18;7.68;;;;;;;;;;4950645;29;20234;-79
2022/12/05 11:08:54;;;;;;;14.48;7.72;;;;;;;;;;4957251;28;20047;-77
2022/12/05 11:11:34;;;;;;;15.57;8.10;;;;;;;;;;4954823;29;20539;-80
2022/12/05 11:14:05;;;;;;;15.25;8.27;;;;;;;;;;4955932;28;20055;-80
2022/12/05 11:16:31;;;;;;;15.93;9.05;;;;;;;;;;4955294;28;20067;-80
2022/12/05 11:19:16;;;;;;;37.60;16.75;;;;;;;;;;4952283;28;20047;-80
2022/12/05 11:21:43;;;;;;;29.45;13.95;;;;;;;;;;4945117;29;20052;-81
2022/12/05 11:24:30;;;;;;;36.83;15.93;;;;;;;;;;4945808;29;20397;-79
2022/12/05 11:26:57;;;;;;;33.15;15.23;;;;;;;;;;4937985;29;20063;-79
2022/12/05 11:29:28;;;;;;;32.60;14.80;;;;;;;;;;4937421;29;20161;-80
2022/12/05 11:31:54;;;;;;;34.42;14.98;;;;;;;;;;4938545;29;20059;-80
2022/12/05 11:34:22;;;;;;;31.63;14.30;;;;;;;;;;4937538;29;20233;-80
2022/12/05 11:36:54;;;;;;;29.73;14.30;;;;;;;;;;4936347;29;20442;-79
2022/12/05 11:39:21;;;;;;;29.42;14.13;;;;;;;;;;4950791;29;20544;-80
2022/12/05 11:41:56;;;;;;;30.77;13.98;;;;;;;;;;4948501;28;20518;-80
2022/12/05 11:44:26;;;;;;;28.45;13.50;;;;;;;;;;4954583;29;20055;-80
2022/12/05 11:47:07;;;;;;;21.40;11.35;;;;;;;;;;4957270;29;20107;-80
2022/12/05 11:49:49;;;;;;;23.85;11.15;;;;;;;;;;4955402;28;20317;-82
2022/12/05 11:52:46;;;;;;;23.02;10.75;;;;;;;;;;4960334;28;20051;-81
2022/12/05 11:55:20;;;;;;;26.02;11.65;;;;;;;;;;4955198;28;20056;-82
2022/12/05 11:57:56;;;;;;;24.08;10.70;;;;;;;;;;4964999;28;20053;-79
2022/12/05 12:00:23;;;;;;;;;;;;;;;;;;4944733;28;20050;-81
2022/12/05 12:03:18;;;;;;;21.90;10.10;;;;;;;;;;4953453;29;19933;-82
2022/12/05 12:06:05;;;;;;;20.55;10.77;;;;;;;;;;4936878;28;20181;-81
2022/12/05 12:08:53;;;;;;;22.67;10.05;;;;;;;;;;4956860;29;20057;-81
2022/12/05 12:11:33;;;;;;;20.92;10.60;;;;;;;;;;4957098;28;20067;-81
2022/12/05 12:14:11;;;;;;;19.92;9.45;;;;;;;;;;4953923;29;20079;-82
2022/12/05 12:16:46;;;;;;;21.48;10.73;;;;;;;;;;4955736;28;20047;-81
2022/12/05 12:19:22;;;;;;;18.20;9.68;;;;;;;;;;4956802;28;20331;-81
2022/12/05 12:22:03;;;;;;;18.40;9.57;;;;;;;;;;4956305;29;20043;-81
2022/12/05 12:24:38;;;;;;;18.10;9.45;;;;;;;;;;4957013;29;20051;-79
2022/12/05 12:27:14;;;;;;;23.63;11.07;;;;;;;;;;4956968;28;20550;-80
2022/12/05 12:29:44;;;;;;;20.60;9.70;;;;;;;;;;4955692;28;20055;-81
2022/12/05 12:32:22;;;;;;;18.42;10.10;;;;;;;;;;4957503;29;20512;-80
2022/12/05 12:34:58;;;;;;;21.83;10.18;;;;;;;;;;4957393;28;20055;-80
2022/12/05 12:37:24;;;;;;;21.83;9.90;;;;;;;;;;4958356;29;20420;-81
2022/12/05 12:39:58;;;;;;;21.75;10.65;;;;;;;;;;4958739;29;20055;-82
2022/12/05 12:42:27;;;;;;;26.30;10.35;;;;;;;;;;4964112;28;20055;-82
2022/12/05 12:45:04;;;;;;;22.15;9.98;;;;;;;;;;4939744;29;20126;-80
2022/12/05 12:47:42;;;;;;;23.95;10.70;;;;;;;;;;4941226;29;20055;-80
2022/12/05 12:50:12;;;;;;;24.27;10.25;;;;;;;;;;4953217;28;20050;-81
2022/12/05 12:53:07;;;;;;;23.58;10.80;;;;;;;;;;4952710;28;20601;-81
2022/12/05 12:55:43;;;;;;;20.70;11.05;;;;;;;;;;4952631;29;20066;-81
2022/12/05 12:58:15;;;;;;;24.35;11.13;;;;;;;;;;4952083;28;20047;-79
2022/12/05 13:00:57;;;;;;;22.73;10.82;;;;;;;;;;4952536;28;20055;-79
2022/12/05 13:03:26;;;;;;;23.48;11.15;;;;;;;;;;4952051;28;20393;-82
2022/12/05 13:05:58;;;;;;;24.35;11.18;;;;;;;;;;4951251;29;20051;-81
2022/12/05 13:08:34;;;;;;;26.30;11.40;;;;;;;;;;4952501;28;20063;-81
2022/12/05 13:11:04;;;;;;;25.70;12.20;;;;;;;;;;4954686;28;20062;-81
2022/12/05 13:13:35;;;;;;;24.40;11.23;;;;;;;;;;4954602;28;20093;-82
2022/12/05 13:16:05;;;;;;;24.63;11.32;;;;;;;;;;4959321;29;20110;-81
2022/12/05 13:18:32;;;;;;;27.15;11.93;;;;;;;;;;4968412;28;20502;-81
2022/12/05 13:20:59;;;;;;;26.00;11.32;;;;;;;;;;4953498;28;20051;-80
2022/12/05 13:23:28;;;;;;;23.58;11.20;;;;;;;;;;4952837;28;20047;-81
2022/12/05 13:25:56;;;;;;;25.02;11.25;;;;;;;;;;4953708;28;20116;-81
2022/12/05 13:28:27;;;;;;;24.88;11.45;;;;;;;;;;4951716;29;20102;-80
2022/12/05 13:30:56;;;;;;;22.02;11.15;;;;;;;;;;4954437;28;20061;-79
2022/12/05 13:33:32;;;;;;;21.85;10.77;;;;;;;;;;4954195;28;20051;-81
2022/12/05 13:44:35;;;;;;;26.92;11.48;;;;;;;;;;4934299;29;20055;-80
2022/12/05 13:47:06;;;;;;;22.15;10.93;;;;;;;;;;4936131;29;20058;-81
2022/12/05 13:49:40;;;;;;;26.10;11.45;;;;;;;;;;4934769;29;20068;-81
2022/12/05 13:52:11;;;;;;;22.17;10.93;;;;;;;;;;4936790;29;20240;-81
2022/12/05 13:54:43;;;;;;;23.05;10.82;;;;;;;;;;4954157;28;20047;-81
2022/12/05 13:57:29;;;;;;;21.90;10.75;;;;;;;;;;4954923;28;20051;-81
2022/12/05 14:00:08;;;;;;;21.65;11.27;;;;;;;;;;4961657;28;20508;-83
2022/12/05 14:02:53;;;;;;;20.67;10.00;;;;;;;;;;4962010;28;20091;-82
2022/12/05 14:05:20;;;;;;;;;;;;;;;;;;4957025;29;20150;-81
2022/12/05 14:07:46;;;;;;;22.92;10.50;;;;;;;;;;4955752;28;19922;-81
2022/12/05 14:10:17;;;;;;;25.05;11.23;;;;;;;;;;4958218;28;20074;-80
2022/12/05 14:12:44;;;;;;;25.70;11.35;;;;;;;;;;4957454;28;20098;-80
2022/12/05 14:15:29;;;;;;;24.05;11.00;;;;;;;;;;4959102;29;20062;-81
2022/12/05 14:18:05;;;;;;;25.80;11.65;;;;;;;;;;4966870;29;20047;-82
2022/12/05 14:20:31;;;;;;;;;;;;;;;;;;4963309;28;20048;-81
2022/12/05 14:23:06;;;;;;;25.65;10.77;;;;;;;;;;4962198;29;20271;-81
2022/12/05 14:25:53;;;;;;;25.45;10.73;;;;;;;;;;4965305;28;20061;-82
2022/12/05 14:28:43;;;;;;;21.15;10.73;;;;;;;;;;4974245;28;20232;-81
2022/12/05 14:31:21;;;;;;;25.55;10.73;;;;;;;;;;4965075;28;20124;-80
2022/12/05 14:34:07;;;;;;;25.50;10.90;;;;;;;;;;4978157;28;20051;-78
2022/12/05 14:36:33;;;;;;;26.48;11.27;;;;;;;;;;4973057;29;20069;-81
2022/12/05 14:39:18;;;;;;;26.95;11.43;;;;;;;;;;4969033;28;20247;-81
2022/12/05 14:41:46;;;;;;;22.83;10.75;;;;;;;;;;4960445;28;20123;-79
2022/12/05 14:44:17;;;;;;;21.00;10.48;;;;;;;;;;4953498;29;20043;-81
2022/12/05 14:46:43;;;;;;;26.85;11.48;;;;;;;;;;4953344;29;20047;-82
2022/12/05 14:49:29;;;;;;;24.67;11.60;;;;;;;;;;4971551;28;20053;-81
2022/12/05 14:52:08;;;;;;;26.73;11.20;;;;;;;;;;4956371;29;20059;-79